METAR Data
IDs: Format: Raw Decoded Include TAF

Data at: 0513 UTC 26 May 2022

EDDF 260450Z 20007KT CAVOK 15/08 Q1020 NOSIG